sensor_id;sensor_type;location;lat;lon;timestamp;temperature;humidity
37642;DHT22;23486;51.956;5.888;2022-08-14T00:00:09;23.60;67.20
37642;DHT22;23486;51.956;5.888;2022-08-14T00:02:36;23.60;67.40
37642;DHT22;23486;51.956;5.888;2022-08-14T00:05:02;23.60;67.60
37642;DHT22;23486;51.956;5.888;2022-08-14T00:07:30;23.50;67.80
37642;DHT22;23486;51.956;5.888;2022-08-14T00:09:56;23.50;67.90
37642;DHT22;23486;51.956;5.888;2022-08-14T00:12:22;23.40;68.00
37642;DHT22;23486;51.956;5.888;2022-08-14T00:14:48;23.40;68.30
37642;DHT22;23486;51.956;5.888;2022-08-14T00:17:13;23.40;68.50
37642;DHT22;23486;51.956;5.888;2022-08-14T00:19:39;23.30;68.70
37642;DHT22;23486;51.956;5.888;2022-08-14T00:22:05;23.30;69.00
37642;DHT22;23486;51.956;5.888;2022-08-14T00:24:30;23.20;69.30
37642;DHT22;23486;51.956;5.888;2022-08-14T00:26:56;23.20;69.50
37642;DHT22;23486;51.956;5.888;2022-08-14T00:29:22;23.10;69.60
37642;DHT22;23486;51.956;5.888;2022-08-14T00:31:48;23.10;69.80
37642;DHT22;23486;51.956;5.888;2022-08-14T00:34:14;23.00;70.00
37642;DHT22;23486;51.956;5.888;2022-08-14T00:36:39;23.00;70.10
37642;DHT22;23486;51.956;5.888;2022-08-14T00:39:05;23.00;70.30
37642;DHT22;23486;51.956;5.888;2022-08-14T00:41:31;22.90;70.50
37642;DHT22;23486;51.956;5.888;2022-08-14T00:43:58;22.90;70.60
37642;DHT22;23486;51.956;5.888;2022-08-14T00:46:24;22.90;70.70
37642;DHT22;23486;51.956;5.888;2022-08-14T00:48:49;22.80;70.80
37642;DHT22;23486;51.956;5.888;2022-08-14T00:51:15;22.70;71.10
37642;DHT22;23486;51.956;5.888;2022-08-14T00:53:41;22.70;71.20
37642;DHT22;23486;51.956;5.888;2022-08-14T00:56:07;22.70;71.50
37642;DHT22;23486;51.956;5.888;2022-08-14T00:58:34;22.60;71.60
37642;DHT22;23486;51.956;5.888;2022-08-14T01:01:06;22.60;71.90
37642;DHT22;23486;51.956;5.888;2022-08-14T01:03:36;22.60;72.00
37642;DHT22;23486;51.956;5.888;2022-08-14T01:06:26;22.50;72.20
37642;DHT22;23486;51.956;5.888;2022-08-14T01:08:51;22.50;72.40
37642;DHT22;23486;51.956;5.888;2022-08-14T01:11:20;22.40;72.70
37642;DHT22;23486;51.956;5.888;2022-08-14T01:13:47;22.40;73.00
37642;DHT22;23486;51.956;5.888;2022-08-14T01:16:15;22.30;73.00
37642;DHT22;23486;51.956;5.888;2022-08-14T01:18:42;22.30;73.40
37642;DHT22;23486;51.956;5.888;2022-08-14T01:21:36;22.30;73.40
37642;DHT22;23486;51.956;5.888;2022-08-14T01:24:04;22.20;73.60
37642;DHT22;23486;51.956;5.888;2022-08-14T01:26:33;22.20;73.80
37642;DHT22;23486;51.956;5.888;2022-08-14T01:29:00;22.20;74.10
37642;DHT22;23486;51.956;5.888;2022-08-14T01:31:28;22.10;74.20
37642;DHT22;23486;51.956;5.888;2022-08-14T01:33:55;22.10;74.30
37642;DHT22;23486;51.956;5.888;2022-08-14T01:36:24;22.10;74.50
37642;DHT22;23486;51.956;5.888;2022-08-14T01:38:51;22.10;74.60
37642;DHT22;23486;51.956;5.888;2022-08-14T01:41:24;22.00;74.80
37642;DHT22;23486;51.956;5.888;2022-08-14T01:43:51;22.00;74.90
37642;DHT22;23486;51.956;5.888;2022-08-14T01:46:22;22.00;75.10
37642;DHT22;23486;51.956;5.888;2022-08-14T01:48:49;22.00;75.20
37642;DHT22;23486;51.956;5.888;2022-08-14T01:51:18;21.90;75.50
37642;DHT22;23486;51.956;5.888;2022-08-14T01:53:52;21.90;75.70
37642;DHT22;23486;51.956;5.888;2022-08-14T01:56:19;21.90;76.00
37642;DHT22;23486;51.956;5.888;2022-08-14T01:58:47;21.80;76.10
37642;DHT22;23486;51.956;5.888;2022-08-14T02:01:18;21.80;76.10
37642;DHT22;23486;51.956;5.888;2022-08-14T02:03:45;21.80;76.40
37642;DHT22;23486;51.956;5.888;2022-08-14T02:06:11;21.70;76.40
37642;DHT22;23486;51.956;5.888;2022-08-14T02:08:38;21.70;76.80
37642;DHT22;23486;51.956;5.888;2022-08-14T02:11:06;21.70;76.90
37642;DHT22;23486;51.956;5.888;2022-08-14T02:13:56;21.70;76.90
37642;DHT22;23486;51.956;5.888;2022-08-14T02:16:27;21.60;77.20
37642;DHT22;23486;51.956;5.888;2022-08-14T02:18:55;21.70;77.30
37642;DHT22;23486;51.956;5.888;2022-08-14T02:21:22;21.60;77.40
37642;DHT22;23486;51.956;5.888;2022-08-14T02:23:49;21.60;77.60
37642;DHT22;23486;51.956;5.888;2022-08-14T02:26:32;21.50;77.70
37642;DHT22;23486;51.956;5.888;2022-08-14T02:29:07;21.60;77.80
37642;DHT22;23486;51.956;5.888;2022-08-14T02:31:37;21.50;77.90
37642;DHT22;23486;51.956;5.888;2022-08-14T02:34:08;21.50;78.30
37642;DHT22;23486;51.956;5.888;2022-08-14T02:36:36;21.50;78.40
37642;DHT22;23486;51.956;5.888;2022-08-14T02:39:02;21.50;78.50
37642;DHT22;23486;51.956;5.888;2022-08-14T02:41:29;21.40;78.50
37642;DHT22;23486;51.956;5.888;2022-08-14T02:43:57;21.40;78.70
37642;DHT22;23486;51.956;5.888;2022-08-14T02:46:22;21.30;78.70
37642;DHT22;23486;51.956;5.888;2022-08-14T02:48:48;21.30;78.90
37642;DHT22;23486;51.956;5.888;2022-08-14T02:51:14;21.30;79.10
37642;DHT22;23486;51.956;5.888;2022-08-14T02:53:43;21.20;79.20
37642;DHT22;23486;51.956;5.888;2022-08-14T02:56:12;21.10;79.40
37642;DHT22;23486;51.956;5.888;2022-08-14T02:58:46;21.10;79.70
37642;DHT22;23486;51.956;5.888;2022-08-14T03:01:14;21.00;80.00
37642;DHT22;23486;51.956;5.888;2022-08-14T03:03:42;21.00;80.20
37642;DHT22;23486;51.956;5.888;2022-08-14T03:06:09;21.00;80.30
37642;DHT22;23486;51.956;5.888;2022-08-14T03:08:37;20.90;80.50
37642;DHT22;23486;51.956;5.888;2022-08-14T03:11:04;20.90;80.70
37642;DHT22;23486;51.956;5.888;2022-08-14T03:13:36;20.80;80.80
37642;DHT22;23486;51.956;5.888;2022-08-14T03:16:07;20.80;81.10
37642;DHT22;23486;51.956;5.888;2022-08-14T03:18:37;20.80;81.20
37642;DHT22;23486;51.956;5.888;2022-08-14T03:21:08;20.80;81.30
37642;DHT22;23486;51.956;5.888;2022-08-14T03:23:36;20.70;81.40
37642;DHT22;23486;51.956;5.888;2022-08-14T03:26:02;20.70;81.60
37642;DHT22;23486;51.956;5.888;2022-08-14T03:28:29;20.70;81.80
37642;DHT22;23486;51.956;5.888;2022-08-14T03:30:56;20.70;82.00
37642;DHT22;23486;51.956;5.888;2022-08-14T03:33:22;20.60;82.10
37642;DHT22;23486;51.956;5.888;2022-08-14T03:35:48;20.60;82.30
37642;DHT22;23486;51.956;5.888;2022-08-14T03:38:14;20.60;82.60
37642;DHT22;23486;51.956;5.888;2022-08-14T03:40:42;20.60;82.80
37642;DHT22;23486;51.956;5.888;2022-08-14T03:43:09;20.50;82.80
37642;DHT22;23486;51.956;5.888;2022-08-14T03:45:37;20.60;83.10
37642;DHT22;23486;51.956;5.888;2022-08-14T03:48:15;20.60;83.20
37642;DHT22;23486;51.956;5.888;2022-08-14T03:50:53;20.60;83.40
37642;DHT22;23486;51.956;5.888;2022-08-14T03:53:19;20.50;83.30
37642;DHT22;23486;51.956;5.888;2022-08-14T03:55:45;20.50;83.50
37642;DHT22;23486;51.956;5.888;2022-08-14T03:58:12;20.50;83.70
37642;DHT22;23486;51.956;5.888;2022-08-14T04:00:39;20.50;84.00
37642;DHT22;23486;51.956;5.888;2022-08-14T04:03:08;20.50;84.20
37642;DHT22;23486;51.956;5.888;2022-08-14T04:05:35;20.50;84.30
37642;DHT22;23486;51.956;5.888;2022-08-14T04:08:04;20.50;84.50
37642;DHT22;23486;51.956;5.888;2022-08-14T04:10:30;20.40;84.60
37642;DHT22;23486;51.956;5.888;2022-08-14T04:12:56;20.40;84.90
37642;DHT22;23486;51.956;5.888;2022-08-14T04:15:24;20.40;85.00
37642;DHT22;23486;51.956;5.888;2022-08-14T04:17:52;20.40;85.20
37642;DHT22;23486;51.956;5.888;2022-08-14T04:20:18;20.40;85.30
37642;DHT22;23486;51.956;5.888;2022-08-14T04:22:44;20.40;85.40
37642;DHT22;23486;51.956;5.888;2022-08-14T04:25:10;20.30;85.50
37642;DHT22;23486;51.956;5.888;2022-08-14T04:27:36;20.40;85.60
37642;DHT22;23486;51.956;5.888;2022-08-14T04:30:05;20.40;85.70
37642;DHT22;23486;51.956;5.888;2022-08-14T04:32:30;20.40;85.80
37642;DHT22;23486;51.956;5.888;2022-08-14T04:34:59;20.30;85.90
37642;DHT22;23486;51.956;5.888;2022-08-14T04:37:25;20.30;86.00
37642;DHT22;23486;51.956;5.888;2022-08-14T04:40:09;20.30;86.10
37642;DHT22;23486;51.956;5.888;2022-08-14T04:42:55;20.40;86.30
37642;DHT22;23486;51.956;5.888;2022-08-14T04:45:39;20.30;86.50
37642;DHT22;23486;51.956;5.888;2022-08-14T04:48:10;20.40;86.60
37642;DHT22;23486;51.956;5.888;2022-08-14T04:50:48;20.30;86.80
37642;DHT22;23486;51.956;5.888;2022-08-14T04:53:16;20.40;86.90
37642;DHT22;23486;51.956;5.888;2022-08-14T04:55:47;20.30;87.00
37642;DHT22;23486;51.956;5.888;2022-08-14T04:58:14;20.30;87.20
37642;DHT22;23486;51.956;5.888;2022-08-14T05:00:42;20.30;87.30
37642;DHT22;23486;51.956;5.888;2022-08-14T05:03:08;20.30;87.40
37642;DHT22;23486;51.956;5.888;2022-08-14T05:05:34;20.30;87.60
37642;DHT22;23486;51.956;5.888;2022-08-14T05:08:09;20.30;87.80
37642;DHT22;23486;51.956;5.888;2022-08-14T05:10:40;20.30;88.10
37642;DHT22;23486;51.956;5.888;2022-08-14T05:13:06;20.30;88.10
37642;DHT22;23486;51.956;5.888;2022-08-14T05:15:34;20.40;88.20
37642;DHT22;23486;51.956;5.888;2022-08-14T05:18:02;20.30;88.30
37642;DHT22;23486;51.956;5.888;2022-08-14T05:20:28;20.40;88.60
37642;DHT22;23486;51.956;5.888;2022-08-14T05:22:55;20.40;88.50
37642;DHT22;23486;51.956;5.888;2022-08-14T05:25:21;20.40;88.60
37642;DHT22;23486;51.956;5.888;2022-08-14T05:27:47;20.40;88.70
37642;DHT22;23486;51.956;5.888;2022-08-14T05:30:12;20.50;88.70
37642;DHT22;23486;51.956;5.888;2022-08-14T05:32:39;20.50;88.70
37642;DHT22;23486;51.956;5.888;2022-08-14T05:35:07;20.50;88.90
37642;DHT22;23486;51.956;5.888;2022-08-14T05:37:35;20.50;88.80
37642;DHT22;23486;51.956;5.888;2022-08-14T05:40:03;20.60;88.90
37642;DHT22;23486;51.956;5.888;2022-08-14T05:42:29;20.60;89.00
37642;DHT22;23486;51.956;5.888;2022-08-14T05:44:54;20.70;89.10
37642;DHT22;23486;51.956;5.888;2022-08-14T05:47:20;20.70;89.10
37642;DHT22;23486;51.956;5.888;2022-08-14T05:49:46;20.70;89.10
37642;DHT22;23486;51.956;5.888;2022-08-14T05:52:12;20.80;89.20
37642;DHT22;23486;51.956;5.888;2022-08-14T05:54:38;20.80;89.30
37642;DHT22;23486;51.956;5.888;2022-08-14T05:57:03;20.80;89.20
37642;DHT22;23486;51.956;5.888;2022-08-14T05:59:29;20.80;89.20
37642;DHT22;23486;51.956;5.888;2022-08-14T06:01:55;20.90;89.40
37642;DHT22;23486;51.956;5.888;2022-08-14T06:04:20;20.90;89.40
37642;DHT22;23486;51.956;5.888;2022-08-14T06:06:46;21.00;89.40
37642;DHT22;23486;51.956;5.888;2022-08-14T06:09:14;21.00;89.50
37642;DHT22;23486;51.956;5.888;2022-08-14T06:11:40;21.00;89.60
37642;DHT22;23486;51.956;5.888;2022-08-14T06:14:05;21.10;89.60
37642;DHT22;23486;51.956;5.888;2022-08-14T06:16:31;21.10;89.60
37642;DHT22;23486;51.956;5.888;2022-08-14T06:18:56;21.20;89.60
37642;DHT22;23486;51.956;5.888;2022-08-14T06:21:22;21.20;89.40
37642;DHT22;23486;51.956;5.888;2022-08-14T06:23:47;21.30;89.40
37642;DHT22;23486;51.956;5.888;2022-08-14T06:26:13;21.30;89.40
37642;DHT22;23486;51.956;5.888;2022-08-14T06:28:39;21.40;89.40
37642;DHT22;23486;51.956;5.888;2022-08-14T06:31:04;21.40;89.30
37642;DHT22;23486;51.956;5.888;2022-08-14T06:33:30;21.40;89.20
37642;DHT22;23486;51.956;5.888;2022-08-14T06:35:56;21.50;89.30
37642;DHT22;23486;51.956;5.888;2022-08-14T06:38:22;21.50;89.30
37642;DHT22;23486;51.956;5.888;2022-08-14T06:40:49;21.50;89.20
37642;DHT22;23486;51.956;5.888;2022-08-14T06:43:17;21.60;89.10
37642;DHT22;23486;51.956;5.888;2022-08-14T06:45:45;21.70;89.10
37642;DHT22;23486;51.956;5.888;2022-08-14T06:48:17;21.70;89.00
37642;DHT22;23486;51.956;5.888;2022-08-14T06:50:44;21.80;89.10
37642;DHT22;23486;51.956;5.888;2022-08-14T06:53:10;21.80;89.00
37642;DHT22;23486;51.956;5.888;2022-08-14T06:55:36;21.90;89.00
37642;DHT22;23486;51.956;5.888;2022-08-14T06:58:05;22.00;88.90
37642;DHT22;23486;51.956;5.888;2022-08-14T07:00:30;22.00;88.90
37642;DHT22;23486;51.956;5.888;2022-08-14T07:02:56;22.10;88.90
37642;DHT22;23486;51.956;5.888;2022-08-14T07:05:40;22.10;88.70
37642;DHT22;23486;51.956;5.888;2022-08-14T07:08:24;22.20;88.60
37642;DHT22;23486;51.956;5.888;2022-08-14T07:10:56;22.30;88.50
37642;DHT22;23486;51.956;5.888;2022-08-14T07:13:22;22.30;88.40
37642;DHT22;23486;51.956;5.888;2022-08-14T07:15:56;22.30;88.30
37642;DHT22;23486;51.956;5.888;2022-08-14T07:18:24;22.40;88.20
37642;DHT22;23486;51.956;5.888;2022-08-14T07:20:50;22.40;88.20
37642;DHT22;23486;51.956;5.888;2022-08-14T07:23:16;22.50;88.10
37642;DHT22;23486;51.956;5.888;2022-08-14T07:25:43;22.50;88.00
37642;DHT22;23486;51.956;5.888;2022-08-14T07:28:14;22.60;87.90
37642;DHT22;23486;51.956;5.888;2022-08-14T07:30:40;22.60;87.80
37642;DHT22;23486;51.956;5.888;2022-08-14T07:33:07;22.60;87.80
37642;DHT22;23486;51.956;5.888;2022-08-14T07:35:33;22.70;87.80
37642;DHT22;23486;51.956;5.888;2022-08-14T07:37:59;22.70;87.80
37642;DHT22;23486;51.956;5.888;2022-08-14T07:40:25;22.70;87.70
37642;DHT22;23486;51.956;5.888;2022-08-14T07:42:51;22.80;87.70
37642;DHT22;23486;51.956;5.888;2022-08-14T07:45:17;22.80;87.60
37642;DHT22;23486;51.956;5.888;2022-08-14T07:47:43;22.90;87.60
37642;DHT22;23486;51.956;5.888;2022-08-14T07:50:17;23.00;87.60
37642;DHT22;23486;51.956;5.888;2022-08-14T07:52:44;23.00;87.50
37642;DHT22;23486;51.956;5.888;2022-08-14T07:55:11;23.10;87.60
37642;DHT22;23486;51.956;5.888;2022-08-14T07:57:45;23.10;87.50
37642;DHT22;23486;51.956;5.888;2022-08-14T08:00:21;23.20;87.30
37642;DHT22;23486;51.956;5.888;2022-08-14T08:02:51;23.30;87.10
37642;DHT22;23486;51.956;5.888;2022-08-14T08:05:18;23.30;87.50
37642;DHT22;23486;51.956;5.888;2022-08-14T08:07:45;23.40;87.00
37642;DHT22;23486;51.956;5.888;2022-08-14T08:13:05;23.50;86.70
37642;DHT22;23486;51.956;5.888;2022-08-14T08:15:40;23.70;86.60
37642;DHT22;23486;51.956;5.888;2022-08-14T08:18:07;23.70;86.40
37642;DHT22;23486;51.956;5.888;2022-08-14T08:20:35;23.80;86.40
37642;DHT22;23486;51.956;5.888;2022-08-14T08:23:03;23.90;86.30
37642;DHT22;23486;51.956;5.888;2022-08-14T08:25:32;23.90;86.00
37642;DHT22;23486;51.956;5.888;2022-08-14T08:28:01;24.00;85.90
37642;DHT22;23486;51.956;5.888;2022-08-14T08:30:29;24.10;85.60
37642;DHT22;23486;51.956;5.888;2022-08-14T08:32:57;24.20;85.30
37642;DHT22;23486;51.956;5.888;2022-08-14T08:35:25;24.30;84.90
37642;DHT22;23486;51.956;5.888;2022-08-14T08:37:52;24.30;84.70
37642;DHT22;23486;51.956;5.888;2022-08-14T08:40:29;24.40;84.50
37642;DHT22;23486;51.956;5.888;2022-08-14T08:42:56;24.40;84.20
37642;DHT22;23486;51.956;5.888;2022-08-14T08:45:22;24.50;84.10
37642;DHT22;23486;51.956;5.888;2022-08-14T08:47:49;24.60;84.00
37642;DHT22;23486;51.956;5.888;2022-08-14T08:50:24;24.70;83.90
37642;DHT22;23486;51.956;5.888;2022-08-14T08:52:56;24.80;83.60
37642;DHT22;23486;51.956;5.888;2022-08-14T08:55:30;24.90;83.40
37642;DHT22;23486;51.956;5.888;2022-08-14T08:58:01;25.00;83.00
37642;DHT22;23486;51.956;5.888;2022-08-14T09:00:29;25.10;82.70
37642;DHT22;23486;51.956;5.888;2022-08-14T09:03:01;25.20;82.50
37642;DHT22;23486;51.956;5.888;2022-08-14T09:05:29;25.20;82.40
37642;DHT22;23486;51.956;5.888;2022-08-14T09:08:14;25.30;82.10
37642;DHT22;23486;51.956;5.888;2022-08-14T09:10:40;25.40;81.30
37642;DHT22;23486;51.956;5.888;2022-08-14T09:13:06;25.50;81.60
37642;DHT22;23486;51.956;5.888;2022-08-14T09:15:31;25.50;81.40
37642;DHT22;23486;51.956;5.888;2022-08-14T09:17:57;25.60;81.20
37642;DHT22;23486;51.956;5.888;2022-08-14T09:20:23;25.70;81.10
37642;DHT22;23486;51.956;5.888;2022-08-14T09:22:49;25.70;80.60
37642;DHT22;23486;51.956;5.888;2022-08-14T09:25:17;25.80;80.20
37642;DHT22;23486;51.956;5.888;2022-08-14T09:27:42;25.90;79.70
37642;DHT22;23486;51.956;5.888;2022-08-14T09:30:08;25.90;79.70
37642;DHT22;23486;51.956;5.888;2022-08-14T09:32:59;26.00;79.50
37642;DHT22;23486;51.956;5.888;2022-08-14T09:38:18;26.30;79.10
37642;DHT22;23486;51.956;5.888;2022-08-14T09:40:54;26.30;78.70
37642;DHT22;23486;51.956;5.888;2022-08-14T09:43:47;26.50;78.20
37642;DHT22;23486;51.956;5.888;2022-08-14T09:46:16;26.50;77.60
37642;DHT22;23486;51.956;5.888;2022-08-14T09:48:41;26.70;77.70
37642;DHT22;23486;51.956;5.888;2022-08-14T09:51:07;26.70;77.40
37642;DHT22;23486;51.956;5.888;2022-08-14T09:53:56;26.80;77.40
37642;DHT22;23486;51.956;5.888;2022-08-14T09:56:23;26.90;77.10
37642;DHT22;23486;51.956;5.888;2022-08-14T09:58:50;27.00;76.70
37642;DHT22;23486;51.956;5.888;2022-08-14T10:01:18;27.10;76.20
37642;DHT22;23486;51.956;5.888;2022-08-14T10:04:08;27.20;75.80
37642;DHT22;23486;51.956;5.888;2022-08-14T10:06:42;27.30;75.60
37642;DHT22;23486;51.956;5.888;2022-08-14T10:09:11;27.40;75.50
37642;DHT22;23486;51.956;5.888;2022-08-14T10:11:38;27.50;75.20
37642;DHT22;23486;51.956;5.888;2022-08-14T10:14:19;27.60;74.40
37642;DHT22;23486;51.956;5.888;2022-08-14T10:16:53;27.60;74.20
37642;DHT22;23486;51.956;5.888;2022-08-14T10:19:21;27.70;74.70
37642;DHT22;23486;51.956;5.888;2022-08-14T10:24:30;27.80;73.90
37642;DHT22;23486;51.956;5.888;2022-08-14T10:26:59;28.00;73.60
37642;DHT22;23486;51.956;5.888;2022-08-14T10:29:36;28.00;73.00
37642;DHT22;23486;51.956;5.888;2022-08-14T10:32:06;28.10;72.20
37642;DHT22;23486;51.956;5.888;2022-08-14T10:34:37;28.20;71.70
37642;DHT22;23486;51.956;5.888;2022-08-14T10:39:35;28.40;70.70
37642;DHT22;23486;51.956;5.888;2022-08-14T10:42:05;28.40;70.70
37642;DHT22;23486;51.956;5.888;2022-08-14T10:44:33;28.50;69.80
37642;DHT22;23486;51.956;5.888;2022-08-14T10:47:00;28.50;69.50
37642;DHT22;23486;51.956;5.888;2022-08-14T10:49:32;28.50;69.80
37642;DHT22;23486;51.956;5.888;2022-08-14T10:52:03;28.60;69.90
37642;DHT22;23486;51.956;5.888;2022-08-14T10:54:39;28.60;69.80
37642;DHT22;23486;51.956;5.888;2022-08-14T10:57:19;28.70;69.30
37642;DHT22;23486;51.956;5.888;2022-08-14T10:59:49;28.90;68.80
37642;DHT22;23486;51.956;5.888;2022-08-14T11:05:01;28.90;68.20
37642;DHT22;23486;51.956;5.888;2022-08-14T11:07:28;29.10;68.00
37642;DHT22;23486;51.956;5.888;2022-08-14T11:09:58;29.10;67.30
37642;DHT22;23486;51.956;5.888;2022-08-14T11:12:25;29.10;67.10
37642;DHT22;23486;51.956;5.888;2022-08-14T11:14:56;29.20;67.30
37642;DHT22;23486;51.956;5.888;2022-08-14T11:17:26;29.20;67.00
37642;DHT22;23486;51.956;5.888;2022-08-14T11:19:56;29.20;66.60
37642;DHT22;23486;51.956;5.888;2022-08-14T11:22:31;29.40;66.40
37642;DHT22;23486;51.956;5.888;2022-08-14T11:25:04;29.40;66.40
37642;DHT22;23486;51.956;5.888;2022-08-14T11:27:32;29.60;66.10
37642;DHT22;23486;51.956;5.888;2022-08-14T11:30:00;29.70;65.70
37642;DHT22;23486;51.956;5.888;2022-08-14T11:32:28;29.70;65.20
37642;DHT22;23486;51.956;5.888;2022-08-14T11:34:56;29.90;65.10
37642;DHT22;23486;51.956;5.888;2022-08-14T11:37:21;30.00;64.70
37642;DHT22;23486;51.956;5.888;2022-08-14T11:39:47;30.00;64.50
37642;DHT22;23486;51.956;5.888;2022-08-14T11:42:25;30.10;64.10
37642;DHT22;23486;51.956;5.888;2022-08-14T11:44:54;30.20;63.60
37642;DHT22;23486;51.956;5.888;2022-08-14T11:47:20;30.20;62.30
37642;DHT22;23486;51.956;5.888;2022-08-14T11:49:46;30.20;62.20
37642;DHT22;23486;51.956;5.888;2022-08-14T11:52:16;30.10;62.20
37642;DHT22;23486;51.956;5.888;2022-08-14T11:54:55;30.20;62.30
37642;DHT22;23486;51.956;5.888;2022-08-14T11:57:21;30.30;62.30
37642;DHT22;23486;51.956;5.888;2022-08-14T11:59:59;30.40;62.20
37642;DHT22;23486;51.956;5.888;2022-08-14T12:02:25;30.50;61.30
37642;DHT22;23486;51.956;5.888;2022-08-14T12:04:52;30.30;60.30
37642;DHT22;23486;51.956;5.888;2022-08-14T12:07:20;30.00;60.90
37642;DHT22;23486;51.956;5.888;2022-08-14T12:09:52;30.10;61.20
37642;DHT22;23486;51.956;5.888;2022-08-14T12:12:26;30.20;60.80
37642;DHT22;23486;51.956;5.888;2022-08-14T12:14:57;30.10;60.60
37642;DHT22;23486;51.956;5.888;2022-08-14T12:17:29;30.20;60.80
37642;DHT22;23486;51.956;5.888;2022-08-14T12:19:58;30.40;60.80
37642;DHT22;23486;51.956;5.888;2022-08-14T12:22:50;30.50;59.90
37642;DHT22;23486;51.956;5.888;2022-08-14T12:25:21;30.70;58.90
37642;DHT22;23486;51.956;5.888;2022-08-14T12:27:49;30.80;59.30
37642;DHT22;23486;51.956;5.888;2022-08-14T12:30:26;31.00;59.00
37642;DHT22;23486;51.956;5.888;2022-08-14T12:32:52;31.10;57.40
37642;DHT22;23486;51.956;5.888;2022-08-14T12:35:19;31.20;57.70
37642;DHT22;23486;51.956;5.888;2022-08-14T12:37:49;31.30;58.00
37642;DHT22;23486;51.956;5.888;2022-08-14T12:40:17;31.40;57.60
37642;DHT22;23486;51.956;5.888;2022-08-14T12:42:43;31.40;57.80
37642;DHT22;23486;51.956;5.888;2022-08-14T12:45:11;31.50;57.70
37642;DHT22;23486;51.956;5.888;2022-08-14T12:47:41;31.50;57.20
37642;DHT22;23486;51.956;5.888;2022-08-14T12:50:08;31.60;57.70
37642;DHT22;23486;51.956;5.888;2022-08-14T12:52:40;31.70;57.60
37642;DHT22;23486;51.956;5.888;2022-08-14T12:55:09;31.80;57.40
37642;DHT22;23486;51.956;5.888;2022-08-14T12:57:40;31.80;56.50
37642;DHT22;23486;51.956;5.888;2022-08-14T13:02:42;31.60;56.20
37642;DHT22;23486;51.956;5.888;2022-08-14T13:05:10;31.80;56.60
37642;DHT22;23486;51.956;5.888;2022-08-14T13:07:38;31.80;56.20
37642;DHT22;23486;51.956;5.888;2022-08-14T13:10:08;31.70;56.30
37642;DHT22;23486;51.956;5.888;2022-08-14T13:12:36;31.40;56.50
37642;DHT22;23486;51.956;5.888;2022-08-14T13:15:05;31.40;56.60
37642;DHT22;23486;51.956;5.888;2022-08-14T13:17:31;31.50;56.40
37642;DHT22;23486;51.956;5.888;2022-08-14T13:20:00;31.80;56.50
37642;DHT22;23486;51.956;5.888;2022-08-14T13:22:27;31.90;56.20
37642;DHT22;23486;51.956;5.888;2022-08-14T13:24:53;32.00;55.90
37642;DHT22;23486;51.956;5.888;2022-08-14T13:27:22;32.10;55.50
37642;DHT22;23486;51.956;5.888;2022-08-14T13:29:56;32.20;55.30
37642;DHT22;23486;51.956;5.888;2022-08-14T13:32:24;32.40;55.20
37642;DHT22;23486;51.956;5.888;2022-08-14T13:34:50;32.50;55.10
37642;DHT22;23486;51.956;5.888;2022-08-14T13:37:17;32.30;55.20
37642;DHT22;23486;51.956;5.888;2022-08-14T13:39:48;32.30;54.80
37642;DHT22;23486;51.956;5.888;2022-08-14T13:42:16;32.00;54.40
37642;DHT22;23486;51.956;5.888;2022-08-14T13:44:49;31.60;54.60
37642;DHT22;23486;51.956;5.888;2022-08-14T13:47:15;31.30;55.10
37642;DHT22;23486;51.956;5.888;2022-08-14T13:49:45;31.40;55.30
37642;DHT22;23486;51.956;5.888;2022-08-14T13:52:14;31.40;55.20
37642;DHT22;23486;51.956;5.888;2022-08-14T13:54:44;31.40;55.60
37642;DHT22;23486;51.956;5.888;2022-08-14T13:57:11;31.20;55.60
37642;DHT22;23486;51.956;5.888;2022-08-14T13:59:48;31.10;55.90
37642;DHT22;23486;51.956;5.888;2022-08-14T14:02:16;31.20;56.30
37642;DHT22;23486;51.956;5.888;2022-08-14T14:04:44;31.50;56.40
37642;DHT22;23486;51.956;5.888;2022-08-14T14:07:13;31.70;56.20
37642;DHT22;23486;51.956;5.888;2022-08-14T14:09:42;31.60;56.00
37642;DHT22;23486;51.956;5.888;2022-08-14T14:12:09;31.40;55.50
37642;DHT22;23486;51.956;5.888;2022-08-14T14:14:35;31.30;55.60
37642;DHT22;23486;51.956;5.888;2022-08-14T14:17:10;31.20;55.70
37642;DHT22;23486;51.956;5.888;2022-08-14T14:19:40;31.20;55.60
37642;DHT22;23486;51.956;5.888;2022-08-14T14:22:07;31.40;55.40
37642;DHT22;23486;51.956;5.888;2022-08-14T14:24:33;31.70;55.00
37642;DHT22;23486;51.956;5.888;2022-08-14T14:27:03;32.00;55.20
37642;DHT22;23486;51.956;5.888;2022-08-14T14:29:30;32.40;54.90
37642;DHT22;23486;51.956;5.888;2022-08-14T14:31:58;32.80;54.60
37642;DHT22;23486;51.956;5.888;2022-08-14T14:34:26;33.20;54.10
37642;DHT22;23486;51.956;5.888;2022-08-14T14:36:52;33.40;53.00
37642;DHT22;23486;51.956;5.888;2022-08-14T14:39:24;33.80;52.50
37642;DHT22;23486;51.956;5.888;2022-08-14T14:41:53;34.00;52.00
37642;DHT22;23486;51.956;5.888;2022-08-14T14:44:25;34.20;52.00
37642;DHT22;23486;51.956;5.888;2022-08-14T14:46:53;34.40;51.70
37642;DHT22;23486;51.956;5.888;2022-08-14T14:49:20;34.60;51.40
37642;DHT22;23486;51.956;5.888;2022-08-14T14:51:46;34.70;51.20
37642;DHT22;23486;51.956;5.888;2022-08-14T14:54:13;34.90;50.70
37642;DHT22;23486;51.956;5.888;2022-08-14T14:56:41;35.00;50.60
37642;DHT22;23486;51.956;5.888;2022-08-14T14:59:08;35.00;50.40
37642;DHT22;23486;51.956;5.888;2022-08-14T15:01:36;34.80;50.00
37642;DHT22;23486;51.956;5.888;2022-08-14T15:04:03;34.60;49.70
37642;DHT22;23486;51.956;5.888;2022-08-14T15:06:31;34.60;49.80
37642;DHT22;23486;51.956;5.888;2022-08-14T15:08:57;34.50;49.50
37642;DHT22;23486;51.956;5.888;2022-08-14T15:11:23;34.60;49.40
37642;DHT22;23486;51.956;5.888;2022-08-14T15:13:50;34.60;49.30
37642;DHT22;23486;51.956;5.888;2022-08-14T15:16:16;34.70;49.20
37642;DHT22;23486;51.956;5.888;2022-08-14T15:18:42;34.90;49.10
37642;DHT22;23486;51.956;5.888;2022-08-14T15:21:10;35.00;49.00
37642;DHT22;23486;51.956;5.888;2022-08-14T15:23:35;35.20;48.90
37642;DHT22;23486;51.956;5.888;2022-08-14T15:26:01;35.20;48.50
37642;DHT22;23486;51.956;5.888;2022-08-14T15:28:27;35.20;48.70
37642;DHT22;23486;51.956;5.888;2022-08-14T15:30:54;35.20;48.30
37642;DHT22;23486;51.956;5.888;2022-08-14T15:33:19;35.20;47.90
37642;DHT22;23486;51.956;5.888;2022-08-14T15:36:08;34.90;47.30
37642;DHT22;23486;51.956;5.888;2022-08-14T15:38:37;34.70;47.20
37642;DHT22;23486;51.956;5.888;2022-08-14T15:41:05;34.50;48.10
37642;DHT22;23486;51.956;5.888;2022-08-14T15:43:32;34.50;47.60
37642;DHT22;23486;51.956;5.888;2022-08-14T15:46:03;34.40;47.50
37642;DHT22;23486;51.956;5.888;2022-08-14T15:48:30;34.20;47.50
37642;DHT22;23486;51.956;5.888;2022-08-14T15:50:56;34.10;47.80
37642;DHT22;23486;51.956;5.888;2022-08-14T15:53:25;33.90;47.70
37642;DHT22;23486;51.956;5.888;2022-08-14T15:55:51;33.70;48.70